Time;durP1;ratioP1;P1;durP2;ratioP2;P2;SDS_P1;SDS_P2;PMS_P1;PMS_P2;Temp;Humidity;BMP_temperature;BMP_pressure;BME280_temperature;BME280_humidity;BME280_pressure;Samples;Min_cycle;Max_cycle;Signal;HPM_P1;HPM_P2
2022/06/15 00:00:59;;;;;;;10.35;5.50;;;;;;;12.03;66.68;99130.08;1807220;79;25687;-60
2022/06/15 00:03:29;;;;;;;10.45;5.58;;;;;;;11.99;66.71;99133.20;1807492;79;25410;-63
2022/06/15 00:06:18;;;;;;;9.95;5.10;;;;;;;11.94;66.91;99131.97;1807399;79;25593;-63
2022/06/15 00:08:47;;;;;;;11.08;5.28;;;;;;;11.88;67.29;99135.38;1807796;79;25596;-63
2022/06/15 00:11:21;;;;;;;9.78;4.90;;;;;;;11.79;67.46;99135.31;1807136;79;27409;-61
2022/06/15 00:13:48;;;;;;;8.93;5.10;;;;;;;11.71;67.81;99136.06;1807172;79;25484;-58
2022/06/15 00:16:15;;;;;;;11.55;5.90;;;;;;;11.63;68.15;99132.91;1806933;79;25619;-63
2022/06/15 00:18:44;;;;;;;13.85;6.70;;;;;;;11.65;68.41;99133.42;1807160;79;25662;-63
2022/06/15 00:21:09;;;;;;;11.48;5.97;;;;;;;11.72;68.43;99136.31;1806769;79;25422;-63
2022/06/15 00:23:35;;;;;;;10.95;5.47;;;;;;;11.70;68.46;99133.88;1807578;79;27436;-58
2022/06/15 00:26:04;;;;;;;8.68;5.17;;;;;;;11.70;68.40;99132.50;1798805;79;25873;-64
2022/06/15 00:28:30;;;;;;;8.93;5.08;;;;;;;11.67;68.43;99135.31;1796374;79;25598;-63
2022/06/15 00:30:57;;;;;;;7.75;5.03;;;;;;;11.62;68.52;99137.34;1796686;79;26862;-63
2022/06/15 00:33:25;;;;;;;9.90;5.20;;;;;;;11.58;68.58;99130.85;1796673;79;25623;-62
2022/06/15 00:35:59;;;;;;;7.35;4.87;;;;;;;11.55;68.55;99129.55;1796397;79;27462;-59
2022/06/15 00:38:33;;;;;;;8.98;5.33;;;;;;;11.44;69.08;99128.95;1795137;79;25794;-59
2022/06/15 00:41:00;;;;;;;11.15;5.80;;;;;;;11.27;69.43;99129.03;1796752;79;25419;-63
2022/06/15 00:43:36;;;;;;;11.45;5.62;;;;;;;11.23;69.69;99131.33;1796658;79;26481;-63
2022/06/15 00:46:28;;;;;;;13.93;6.05;;;;;;;11.22;69.93;99125.56;1796924;79;25445;-62
2022/06/15 00:49:06;;;;;;;11.68;6.40;;;;;;;11.26;69.98;99130.71;1796814;79;27388;-63
2022/06/15 00:51:32;;;;;;;10.95;5.50;;;;;;;11.32;70.09;99124.00;1785387;79;25411;-63
2022/06/15 00:54:00;;;;;;;10.72;5.87;;;;;;;11.26;70.07;99128.77;1796698;79;25458;-63
2022/06/15 00:56:29;;;;;;;10.53;5.75;;;;;;;11.17;70.31;99124.56;1796674;79;25679;-63
2022/06/15 00:59:04;;;;;;;16.87;8.35;;;;;;;11.09;70.65;99125.84;1781388;79;25601;-63
2022/06/15 01:01:30;;;;;;;11.63;5.95;;;;;;;11.16;70.66;99128.98;1794073;79;27094;-61
2022/06/15 01:03:58;;;;;;;11.08;5.85;;;;;;;11.20;70.62;99129.98;1796690;79;25438;-63
2022/06/15 01:06:48;;;;;;;13.40;5.83;;;;;;;11.11;70.69;99118.92;1796720;79;25651;-63
2022/06/15 01:09:27;;;;;;;9.55;5.35;;;;;;;10.97;71.15;99118.13;1730675;82;25764;-63
2022/06/15 01:12:23;;;;;;;9.18;5.53;;;;;;;10.92;71.35;99116.30;1739432;82;25696;-57
2022/06/15 01:15:09;;;;;;;10.25;5.53;;;;;;;10.85;71.47;99115.91;1739176;82;27610;-63
2022/06/15 01:17:43;;;;;;;11.48;5.35;;;;;;;10.85;71.55;99115.91;1731501;82;25807;-61
2022/06/15 01:20:57;;;;;;;10.28;4.90;;;;;;;10.84;71.60;99120.56;1738947;82;25720;-59
2022/06/15 01:23:44;;;;;;;7.37;4.78;;;;;;;10.87;71.60;99118.59;1739184;82;25782;-57
2022/06/15 01:26:57;;;;;;;8.93;4.90;;;;;;;10.83;71.60;99123.61;1728629;82;25820;-62
2022/06/15 01:29:47;;;;;;;7.62;4.35;;;;;;;10.79;71.91;99122.02;1728665;83;27559;-59
2022/06/15 01:32:30;;;;;;;7.08;4.35;;;;;;;10.85;71.95;99121.39;1729597;82;25589;-58
2022/06/15 01:35:08;;;;;;;8.90;5.50;;;;;;;10.89;71.79;99117.73;1716713;83;25471;-57
2022/06/15 01:37:42;;;;;;;14.33;6.80;;;;;;;10.85;71.82;99118.07;1721276;83;26494;-62
2022/06/15 01:40:26;;;;;;;19.30;8.65;;;;;;;10.79;71.95;99109.69;1726479;83;25703;-63
2022/06/15 01:43:03;;;;;;;25.08;11.83;;;;;;;10.72;72.14;99110.66;1729336;83;28406;-63
2022/06/15 01:45:34;;;;;;;29.98;12.65;;;;;;;10.72;72.44;99105.17;1759305;80;25923;-63
2022/06/15 01:48:04;;;;;;;26.57;12.47;;;;;;;10.76;72.42;99107.55;1771739;80;25605;-57
2022/06/15 01:50:38;;;;;;;13.45;8.00;;;;;;;10.69;72.36;99106.60;1724481;82;25626;-57
2022/06/15 01:53:21;;;;;;;19.57;9.85;;;;;;;10.61;72.58;99110.03;1702587;83;25608;-61
2022/06/15 01:56:15;;;;;;;16.45;8.28;;;;;;;10.54;72.81;99109.08;1702270;83;27407;-60
2022/06/15 01:58:46;;;;;;;13.65;6.78;;;;;;;10.40;72.98;99115.29;1703357;84;25481;-62
2022/06/15 02:01:18;;;;;;;10.58;5.97;;;;;;;10.35;73.25;99109.09;1702203;83;25758;-63
2022/06/15 02:03:55;;;;;;;15.10;6.53;;;;;;;10.41;73.41;99110.09;1700168;83;25543;-63
2022/06/15 02:06:53;;;;;;;9.35;5.10;;;;;;;10.45;73.18;99115.75;1732908;81;25668;-63
2022/06/15 02:09:27;;;;;;;9.73;5.53;;;;;;;10.48;73.16;99106.17;1772601;80;27416;-63
2022/06/15 02:11:57;;;;;;;9.20;5.33;;;;;;;10.52;73.02;99107.19;1774622;80;25416;-57
2022/06/15 02:14:29;;;;;;;11.45;5.58;;;;;;;10.53;73.09;99105.52;1778670;80;25401;-62
2022/06/15 02:17:00;;;;;;;9.50;5.37;;;;;;;10.53;73.10;99106.06;1776688;80;25680;-62
2022/06/15 02:19:32;;;;;;;10.08;5.00;;;;;;;10.44;73.02;99109.20;1776575;80;25404;-63
2022/06/15 02:22:04;;;;;;;12.33;6.12;;;;;;;10.42;73.43;99116.36;1774975;80;27843;-63
2022/06/15 02:24:32;;;;;;;11.05;6.00;;;;;;;10.41;73.31;99116.11;1775125;80;25893;-62
2022/06/15 02:26:59;;;;;;;10.72;6.20;;;;;;;10.31;73.33;99117.67;1809028;79;25571;-62
2022/06/15 02:29:27;;;;;;;9.33;5.28;;;;;;;10.12;73.65;99115.78;1812744;79;25699;-63
2022/06/15 02:31:58;;;;;;;27.15;12.88;;;;;;;9.94;74.34;99115.53;1781149;79;25679;-59
2022/06/15 02:34:26;;;;;;;23.00;11.10;;;;;;;9.81;75.53;99112.19;1810695;79;27754;-63
2022/06/15 02:36:52;;;;;;;14.43;7.37;;;;;;;9.75;75.62;99110.88;1801724;79;25584;-62
2022/06/15 02:39:19;;;;;;;7.17;4.50;;;;;;;9.68;75.92;99116.47;1801807;79;25468;-63
2022/06/15 02:41:46;;;;;;;8.38;5.42;;;;;;;9.61;75.36;99121.75;1801670;79;25864;-61
2022/06/15 02:44:18;;;;;;;7.28;4.92;;;;;;;9.61;75.54;99119.56;1801846;79;25552;-60
2022/06/15 02:46:48;;;;;;;9.90;4.72;;;;;;;9.56;75.61;99121.84;1801397;79;27423;-63
2022/06/15 02:49:15;;;;;;;7.03;4.87;;;;;;;9.54;75.91;99119.41;1801178;79;25465;-62
2022/06/15 02:51:56;;;;;;;9.63;5.28;;;;;;;9.59;75.86;99116.33;1801445;79;25489;-63
2022/06/15 02:54:34;;;;;;;10.85;6.42;;;;;;;9.69;75.78;99122.19;1801920;79;25754;-61
2022/06/15 02:57:00;;;;;;;14.85;7.85;;;;;;;9.77;75.53;99123.73;1793603;79;25425;-63
2022/06/15 02:59:27;;;;;;;17.25;8.43;;;;;;;9.80;75.53;99123.67;1802061;79;27275;-63
2022/06/15 03:01:56;;;;;;;18.80;7.83;;;;;;;9.80;75.70;99120.94;1801687;79;25587;-62
2022/06/15 03:04:23;;;;;;;11.03;6.15;;;;;;;9.73;75.92;99117.77;1801885;79;25491;-61
2022/06/15 03:06:49;;;;;;;14.35;5.28;;;;;;;9.69;76.12;99115.34;1801559;79;26543;-63
2022/06/15 03:09:16;;;;;;;6.25;4.65;;;;;;;9.65;76.23;99119.25;1801907;79;25484;-63
2022/06/15 03:11:45;;;;;;;6.80;4.80;;;;;;;9.65;76.59;99116.52;1801532;79;29511;-57
2022/06/15 03:14:13;;;;;;;6.17;4.70;;;;;;;9.76;76.93;99123.45;1801372;79;25433;-57
2022/06/15 03:16:43;;;;;;;8.10;4.40;;;;;;;9.87;76.84;99121.91;1801753;79;25454;-58
2022/06/15 03:19:08;;;;;;;7.33;5.17;;;;;;;9.98;76.85;99123.94;1801319;79;25649;-60
2022/06/15 03:21:35;;;;;;;6.25;4.58;;;;;;;10.10;77.09;99127.61;1801727;79;25450;-62
2022/06/15 03:24:01;;;;;;;6.55;4.53;;;;;;;10.23;76.94;99133.69;1801834;79;27587;-63
2022/06/15 03:26:27;;;;;;;7.25;4.65;;;;;;;10.39;76.84;99123.84;1806310;79;25836;-63
2022/06/15 03:28:53;;;;;;;7.20;4.80;;;;;;;10.56;76.43;99126.01;1808417;79;25483;-59
2022/06/15 03:31:19;;;;;;;7.83;5.00;;;;;;;10.59;75.82;99121.88;1807278;79;26614;-63
2022/06/15 03:33:45;;;;;;;8.40;5.28;;;;;;;10.53;76.24;99126.61;1807387;79;25392;-62
2022/06/15 03:36:11;;;;;;;14.25;7.35;;;;;;;10.44;77.22;99126.47;1807334;79;28275;-63
2022/06/15 03:38:38;;;;;;;7.85;5.60;;;;;;;10.46;77.49;99116.06;1807238;79;25596;-63
2022/06/15 03:41:04;;;;;;;7.12;5.00;;;;;;;10.50;77.42;99128.59;1807253;79;25695;-63
2022/06/15 03:43:30;;;;;;;6.85;5.12;;;;;;;10.52;77.60;99121.71;1807507;79;26436;-63
2022/06/15 03:45:56;;;;;;;8.58;5.30;;;;;;;10.57;77.45;99122.72;1807467;79;25628;-61
2022/06/15 03:48:23;;;;;;;8.93;5.47;;;;;;;10.63;77.51;99118.23;1807394;79;27563;-64
2022/06/15 03:50:50;;;;;;;6.85;5.10;;;;;;;10.76;76.95;99118.52;1807216;79;25545;-63
2022/06/15 03:53:16;;;;;;;8.53;5.08;;;;;;;10.92;76.99;99113.56;1807282;79;25590;-59
2022/06/15 03:55:43;;;;;;;7.35;5.70;;;;;;;11.07;76.10;99112.98;1807194;79;25795;-64
2022/06/15 03:58:16;;;;;;;9.73;4.80;;;;;;;11.21;75.95;99106.94;1807445;79;25628;-64
2022/06/15 04:00:43;;;;;;;6.45;4.53;;;;;;;11.45;75.16;99109.98;1807226;79;28278;-60
2022/06/15 04:03:09;;;;;;;9.65;5.20;;;;;;;11.70;74.71;99119.33;1807192;79;25926;-62
2022/06/15 04:05:41;;;;;;;8.73;5.37;;;;;;;11.86;74.30;99114.30;1807206;79;25438;-62
2022/06/15 04:10:58;;;;;;;8.33;5.00;;;;;;;12.35;73.77;99117.81;1807394;79;25571;-56
2022/06/15 04:13:24;;;;;;;10.55;5.20;;;;;;;12.63;73.05;99116.23;1806980;79;27770;-64
2022/06/15 04:15:51;;;;;;;6.85;5.12;;;;;;;12.90;73.21;99123.47;1806967;79;25780;-64
2022/06/15 04:18:17;;;;;;;9.48;5.30;;;;;;;13.20;72.57;99127.61;1807333;79;25628;-63
2022/06/15 04:20:43;;;;;;;8.05;5.67;;;;;;;13.38;72.19;99131.20;1807270;79;25712;-61
2022/06/15 04:23:16;;;;;;;14.73;5.20;;;;;;;13.54;72.08;99132.98;1807347;79;25687;-64
2022/06/15 04:25:57;;;;;;;10.43;5.75;;;;;;;13.75;71.30;99119.38;1807166;79;27376;-64
2022/06/15 04:28:28;;;;;;;8.75;4.97;;;;;;;13.98;70.84;99123.91;1786216;79;25509;-64
2022/06/15 04:30:54;;;;;;;11.00;5.70;;;;;;;14.31;70.04;99123.39;1808794;79;25567;-58
2022/06/15 04:33:23;;;;;;;9.90;5.90;;;;;;;14.31;70.04;99123.39;1807344;79;25721;-64
2022/06/15 04:35:48;;;;;;;11.12;6.30;;;;;;;14.49;70.02;99127.48;1806657;79;25496;-64
2022/06/15 04:38:14;;;;;;;10.20;6.58;;;;;;;14.64;70.12;99129.70;1807214;79;28064;-60
2022/06/15 04:40:41;;;;;;;13.40;7.25;;;;;;;14.86;69.64;99136.16;1807008;79;25568;-64
2022/06/15 04:43:09;;;;;;;13.05;7.20;;;;;;;15.13;69.76;99117.52;1806947;79;25578;-60
2022/06/15 04:45:36;;;;;;;6.92;4.67;;;;;;;15.34;68.76;99122.25;1807139;79;25832;-61
2022/06/15 04:48:04;;;;;;;10.75;4.62;;;;;;;15.34;65.07;99111.20;1807222;79;25485;-63
2022/06/15 04:50:31;;;;;;;8.18;4.20;;;;;;;15.26;64.90;99117.61;1807309;79;27404;-64
2022/06/15 04:52:57;;;;;;;8.45;4.58;;;;;;;15.25;63.92;99116.80;1807157;79;25607;-64
2022/06/15 04:55:25;;;;;;;7.50;4.37;;;;;;;15.29;64.25;99114.19;1806805;79;25575;-64
2022/06/15 04:57:54;;;;;;;9.33;4.58;;;;;;;15.36;63.35;99110.31;1807233;79;26383;-63
2022/06/15 05:00:23;;;;;;;7.55;4.33;;;;;;;15.42;64.08;99114.50;1806821;79;25629;-64
2022/06/15 05:02:49;;;;;;;9.18;4.65;;;;;;;15.59;63.69;99118.28;1807203;79;27493;-59
2022/06/15 05:05:17;;;;;;;8.28;4.75;;;;;;;15.77;63.64;99111.22;1807111;79;25872;-64
2022/06/15 05:07:46;;;;;;;11.83;5.37;;;;;;;15.94;63.07;99110.27;1806958;79;25721;-59
2022/06/15 05:10:19;;;;;;;7.83;4.80;;;;;;;16.14;63.21;99111.42;1806877;79;25732;-65
2022/06/15 05:12:46;;;;;;;10.08;5.08;;;;;;;16.40;61.64;99110.34;1807256;79;25672;-59
2022/06/15 05:15:13;;;;;;;10.55;5.80;;;;;;;16.40;61.64;99110.34;1807192;79;27367;-64
2022/06/15 05:17:43;;;;;;;12.13;5.35;;;;;;;16.41;61.37;99111.95;1807155;79;25423;-64
2022/06/15 05:20:13;;;;;;;9.28;5.25;;;;;;;16.46;61.20;99115.67;1807159;79;25466;-64
2022/06/15 05:22:40;;;;;;;8.70;5.85;;;;;;;16.56;61.43;99116.02;1807227;79;25664;-61
2022/06/15 05:25:09;;;;;;;12.45;5.20;;;;;;;16.58;61.41;99114.28;1807275;79;25640;-65
2022/06/15 05:27:37;;;;;;;8.20;5.80;;;;;;;16.60;60.96;99109.80;1810935;79;27420;-64
2022/06/15 05:30:07;;;;;;;11.93;5.50;;;;;;;16.75;61.78;99116.64;1807565;79;25406;-59
2022/06/15 05:32:35;;;;;;;10.03;5.53;;;;;;;16.96;62.22;99124.02;1801488;79;25584;-58
2022/06/15 05:35:02;;;;;;;9.65;5.72;;;;;;;17.08;61.77;99124.63;1801484;79;25732;-65
2022/06/15 05:37:31;;;;;;;12.07;5.50;;;;;;;17.23;61.63;99124.50;1801715;79;25443;-64
2022/06/15 05:39:59;;;;;;;10.78;5.05;;;;;;;17.40;60.80;99124.27;1801937;79;27441;-61
2022/06/15 05:42:29;;;;;;;11.43;5.42;;;;;;;17.53;60.59;99116.73;1801621;79;25474;-63
2022/06/15 05:44:56;;;;;;;13.68;5.15;;;;;;;17.63;60.12;99122.38;1801874;79;25626;-65
2022/06/15 05:47:23;;;;;;;9.98;5.25;;;;;;;17.73;59.73;99120.27;1801743;79;25734;-65
2022/06/15 05:49:50;;;;;;;12.93;5.75;;;;;;;17.85;60.06;99114.70;1801472;79;25399;-64
2022/06/15 05:52:18;;;;;;;10.03;4.90;;;;;;;17.97;59.19;99119.95;1801443;79;27413;-64
2022/06/15 05:54:45;;;;;;;11.35;5.03;;;;;;;18.05;60.76;99121.78;1801507;79;25446;-59
2022/06/15 05:57:22;;;;;;;12.15;4.65;;;;;;;18.16;58.27;99119.31;1801432;79;25454;-65
2022/06/15 05:59:50;;;;;;;12.35;5.42;;;;;;;18.27;58.28;99116.27;1800139;79;25765;-65
2022/06/15 06:02:20;;;;;;;11.80;5.42;;;;;;;18.43;58.61;99118.27;1801561;79;25593;-65
2022/06/15 06:04:48;;;;;;;9.78;5.20;;;;;;;18.67;58.08;99119.27;1801845;79;27466;-65
2022/06/15 06:07:14;;;;;;;9.23;4.97;;;;;;;18.80;56.74;99122.77;1801822;79;25454;-64
2022/06/15 06:09:41;;;;;;;11.63;4.22;;;;;;;18.79;55.85;99116.41;1801716;79;25668;-65
2022/06/15 06:12:10;;;;;;;8.13;4.22;;;;;;;18.91;55.47;99123.83;1801584;79;25674;-61
2022/06/15 06:14:42;;;;;;;9.90;4.10;;;;;;;19.07;55.65;99123.02;1801443;79;25589;-61
2022/06/15 06:17:07;;;;;;;10.00;4.47;;;;;;;19.06;55.33;99122.20;1799546;79;26922;-65
2022/06/15 06:19:34;;;;;;;7.45;3.80;;;;;;;19.20;54.90;99124.34;1801637;79;25670;-64
2022/06/15 06:22:02;;;;;;;8.93;4.33;;;;;;;19.29;53.60;99122.96;1801544;79;25487;-65
2022/06/15 06:24:29;;;;;;;12.03;4.05;;;;;;;19.37;51.92;99125.33;1801721;79;25686;-64
2022/06/15 06:27:01;;;;;;;8.05;4.08;;;;;;;19.48;53.90;99121.97;1804154;79;25686;-64
2022/06/15 06:29:29;;;;;;;5.90;3.25;;;;;;;19.62;53.34;99123.70;1810289;79;27347;-60
2022/06/15 06:32:00;;;;;;;7.33;3.87;;;;;;;19.82;50.83;99120.92;1809356;79;25718;-65
2022/06/15 06:34:34;;;;;;;9.63;3.55;;;;;;;19.97;52.46;99124.80;1807058;79;25691;-63
2022/06/15 06:37:02;;;;;;;9.00;3.53;;;;;;;20.17;48.71;99128.41;1805012;79;25643;-60
2022/06/15 06:39:30;;;;;;;8.40;3.60;;;;;;;20.23;50.52;99123.95;1807058;79;25603;-57
2022/06/15 06:42:00;;;;;;;6.47;3.17;;;;;;;20.36;51.38;99133.75;1807102;79;27548;-65
2022/06/15 06:44:28;;;;;;;8.00;3.50;;;;;;;20.53;49.57;99131.66;1807529;79;25732;-65
2022/06/15 06:46:55;;;;;;;7.65;2.90;;;;;;;20.71;49.37;99133.36;1806905;79;25644;-65
2022/06/15 06:49:24;;;;;;;8.05;3.00;;;;;;;20.80;48.56;99131.14;1806725;79;27883;-65
2022/06/15 06:51:51;;;;;;;7.85;2.80;;;;;;;20.99;48.93;99128.67;1807077;79;25655;-64
2022/06/15 06:54:21;;;;;;;6.75;2.42;;;;;;;21.04;47.92;99136.73;1806736;79;27445;-62
2022/06/15 06:56:48;;;;;;;7.45;2.95;;;;;;;21.18;49.14;99132.77;1807058;79;25620;-65
2022/06/15 06:59:16;;;;;;;6.42;2.50;;;;;;;21.19;47.76;99131.58;1806778;79;25658;-64
2022/06/15 07:01:46;;;;;;;4.40;2.20;;;;;;;21.42;47.06;99132.11;1807127;79;25747;-65
2022/06/15 07:04:14;;;;;;;5.22;2.52;;;;;;;21.58;43.70;99133.92;1807392;79;25615;-64
2022/06/15 07:06:41;;;;;;;6.25;2.55;;;;;;;21.60;45.18;99128.78;1807185;79;27370;-63
2022/06/15 07:09:09;;;;;;;7.70;2.83;;;;;;;21.82;45.00;99120.73;1807211;79;25699;-65
2022/06/15 07:11:36;;;;;;;6.10;2.50;;;;;;;21.72;42.86;99127.73;1807185;79;25594;-65
2022/06/15 07:14:05;;;;;;;8.00;3.00;;;;;;;21.73;45.39;99127.94;1806784;79;25685;-65
2022/06/15 07:16:32;;;;;;;5.22;2.65;;;;;;;22.11;45.69;99121.66;1806896;79;25663;-65
2022/06/15 07:18:59;;;;;;;4.90;2.40;;;;;;;22.43;44.29;99128.97;1807007;79;27465;-64
2022/06/15 07:21:28;;;;;;;4.22;1.98;;;;;;;22.62;42.83;99127.81;1806930;79;25454;-65
2022/06/15 07:23:57;;;;;;;6.00;2.15;;;;;;;22.44;42.09;99126.41;1807174;79;25747;-64
2022/06/15 07:26:40;;;;;;;5.28;2.17;;;;;;;22.45;40.35;99127.19;1807314;79;25417;-64
2022/06/15 07:29:06;;;;;;;4.50;2.00;;;;;;;22.51;40.12;99132.64;1809450;79;25670;-65
2022/06/15 07:31:37;;;;;;;6.28;1.98;;;;;;;22.62;41.68;99131.39;1807583;79;27394;-62
2022/06/15 07:34:06;;;;;;;6.17;2.30;;;;;;;22.60;41.57;99130.17;1807100;79;25415;-64
2022/06/15 07:36:34;;;;;;;5.15;2.17;;;;;;;22.85;40.76;99126.20;1807060;79;25648;-66
2022/06/15 07:39:01;;;;;;;6.65;2.40;;;;;;;23.15;40.59;99124.44;1806812;79;25790;-65
2022/06/15 07:41:28;;;;;;;4.60;2.40;;;;;;;23.30;37.70;99123.94;1806957;79;25613;-65
2022/06/15 07:43:55;;;;;;;7.10;2.65;;;;;;;23.44;39.98;99120.47;1806853;79;27410;-61
2022/06/15 07:46:23;;;;;;;4.95;2.67;;;;;;;23.80;38.65;99126.23;1806790;79;25446;-65
2022/06/15 07:51:45;;;;;;;5.17;2.85;;;;;;;23.91;39.50;99126.88;1806812;79;25405;-66
2022/06/15 07:54:15;;;;;;;7.72;3.10;;;;;;;24.20;38.75;99124.83;1807266;79;25461;-63
2022/06/15 07:56:44;;;;;;;8.00;3.08;;;;;;;24.42;38.00;99116.67;1807491;79;27394;-64
2022/06/15 07:59:12;;;;;;;4.75;2.50;;;;;;;24.88;39.01;99121.94;1807229;79;25660;-64
2022/06/15 08:01:38;;;;;;;3.58;2.10;;;;;;;25.16;38.05;99118.92;1807296;79;25568;-63
2022/06/15 08:04:06;;;;;;;3.83;2.10;;;;;;;24.97;36.77;99115.92;1806984;79;25635;-60
2022/06/15 08:06:37;;;;;;;7.62;2.67;;;;;;;25.07;37.98;99124.91;1807251;79;25620;-64
2022/06/15 08:09:05;;;;;;;5.00;2.35;;;;;;;25.39;37.65;99119.86;1807235;79;28179;-60
2022/06/15 08:11:32;;;;;;;6.08;2.33;;;;;;;25.73;36.63;99126.23;1807254;79;25692;-64
2022/06/15 08:13:59;;;;;;;4.42;2.30;;;;;;;25.88;36.31;99121.36;1806932;79;25463;-64
2022/06/15 08:16:25;;;;;;;3.35;2.20;;;;;;;25.91;37.42;99117.12;1807057;79;25998;-63
2022/06/15 08:18:56;;;;;;;4.00;2.40;;;;;;;26.12;36.58;99121.64;1807332;79;25577;-63
2022/06/15 08:21:31;;;;;;;7.67;2.92;;;;;;;26.39;36.79;99124.73;1807223;79;27445;-64
2022/06/15 08:23:59;;;;;;;5.83;2.60;;;;;;;26.37;35.07;99123.55;1806700;79;25658;-63
2022/06/15 08:26:33;;;;;;;4.75;2.33;;;;;;;26.59;35.14;99119.98;1809738;79;25417;-64
2022/06/15 08:29:05;;;;;;;7.20;2.50;;;;;;;26.63;34.54;99118.55;1805940;79;25938;-64
2022/06/15 08:31:32;;;;;;;4.30;2.00;;;;;;;26.87;35.13;99118.16;1807336;79;25446;-63
2022/06/15 08:33:59;;;;;;;5.90;1.95;;;;;;;26.76;34.21;99113.22;1806922;79;27734;-62
2022/06/15 08:36:25;;;;;;;4.58;2.15;;;;;;;26.33;31.38;99122.78;1806969;79;25387;-63
2022/06/15 08:38:52;;;;;;;4.40;2.25;;;;;;;26.03;33.60;99120.69;1807180;79;25634;-63
2022/06/15 08:41:30;;;;;;;4.47;2.30;;;;;;;26.03;33.50;99117.87;1807254;79;25777;-63
2022/06/15 08:44:05;;;;;;;5.30;2.33;;;;;;;26.31;33.95;99123.19;1807035;79;25588;-57
2022/06/15 08:46:56;;;;;;;3.60;2.00;;;;;;;26.86;33.16;99122.20;1803864;79;27502;-62
2022/06/15 08:49:54;;;;;;;6.00;1.87;;;;;;;27.01;33.82;99124.30;1806973;79;25901;-64
2022/06/15 08:52:42;;;;;;;3.08;2.02;;;;;;;27.33;35.14;99118.17;1785815;79;25400;-61
2022/06/15 08:55:28;;;;;;;5.72;2.10;;;;;;;27.50;32.43;99120.61;1798236;79;25937;-60
2022/06/15 08:58:03;;;;;;;4.42;2.15;;;;;;;27.82;33.08;99122.88;1800746;79;25648;-62
2022/06/15 09:00:40;;;;;;;3.85;2.45;;;;;;;27.85;32.07;99122.64;1806639;79;28021;-59
2022/06/15 09:03:18;;;;;;;4.37;2.17;;;;;;;27.95;32.28;99121.73;1806573;79;25380;-61
2022/06/15 09:06:07;;;;;;;2.72;1.80;;;;;;;28.22;31.78;99125.19;1803703;79;25719;-59
2022/06/15 09:09:05;;;;;;;6.30;2.30;;;;;;;28.28;30.13;99122.69;1805253;79;25729;-64
2022/06/15 09:12:49;;;;;;;3.87;1.95;;;;;;;28.45;32.94;99118.64;1806710;79;25689;-58
2022/06/15 09:14:36;;;;;;;3.42;2.02;;;;;;;28.59;29.07;99114.81;1803380;79;26137;-58
2022/06/15 09:17:13;;;;;;;3.77;2.00;;;;;;;28.38;30.35;99113.30;1805856;79;25695;-59
2022/06/15 09:19:44;;;;;;;4.40;1.82;;;;;;;28.39;31.66;99116.33;1802304;79;25584;-60
2022/06/15 09:22:19;;;;;;;4.95;1.98;;;;;;;28.43;29.49;99114.23;1805268;79;25785;-63
2022/06/15 09:25:09;;;;;;;3.95;1.85;;;;;;;28.14;30.17;99115.22;1809558;79;25629;-61
2022/06/15 09:27:41;;;;;;;3.52;1.82;;;;;;;28.36;31.47;99118.58;1808027;78;28222;-61
2022/06/15 09:30:27;;;;;;;4.35;1.77;;;;;;;28.67;30.60;99121.95;1799084;79;27182;-62
2022/06/15 09:33:02;;;;;;;5.22;1.90;;;;;;;28.88;30.47;99115.76;1801263;79;25593;-58
2022/06/15 09:35:42;;;;;;;2.70;1.67;;;;;;;28.67;29.23;99115.67;1801631;79;26528;-58
2022/06/15 09:38:13;;;;;;;4.10;1.92;;;;;;;28.41;30.53;99113.86;1801375;79;25412;-64
2022/06/15 09:40:50;;;;;;;4.47;1.77;;;;;;;28.27;31.34;99112.02;1801365;79;27497;-59
2022/06/15 09:43:56;;;;;;;4.47;1.82;;;;;;;28.56;29.70;99116.47;1801397;79;25471;-63
2022/06/15 09:46:40;;;;;;;5.75;2.22;;;;;;;28.41;29.96;99113.08;1801526;79;25449;-59
2022/06/15 09:49:43;;;;;;;5.62;1.92;;;;;;;28.26;28.59;99115.28;1801125;79;25745;-61
2022/06/15 09:52:33;;;;;;;3.47;1.80;;;;;;;27.84;29.83;99106.98;1801401;79;25450;-57
2022/06/15 09:55:11;;;;;;;2.85;1.72;;;;;;;27.52;29.90;99104.72;1801342;79;28038;-60
2022/06/15 09:57:40;;;;;;;4.97;1.75;;;;;;;27.67;29.67;99105.38;1801541;79;25432;-58
2022/06/15 10:00:11;;;;;;;4.85;2.00;;;;;;;28.29;30.91;99101.13;1801734;79;25491;-56
2022/06/15 10:02:43;;;;;;;2.98;1.67;;;;;;;28.64;29.55;99101.66;1801487;79;25676;-57
2022/06/15 10:05:21;;;;;;;4.35;1.70;;;;;;;28.91;29.79;99097.98;1801112;79;25466;-58
2022/06/15 10:07:49;;;;;;;2.60;1.65;;;;;;;29.34;30.29;99097.04;1801310;79;27405;-62
2022/06/15 10:10:27;;;;;;;5.00;1.75;;;;;;;29.16;29.52;99098.19;1801144;79;25628;-62
2022/06/15 10:12:59;;;;;;;5.25;1.82;;;;;;;29.47;29.47;99092.97;1795485;79;25696;-63
2022/06/15 10:15:32;;;;;;;4.03;1.85;;;;;;;29.54;30.54;99088.59;1800826;79;26426;-60
2022/06/15 10:18:15;;;;;;;3.90;1.50;;;;;;;29.61;28.32;99084.23;1801465;79;25689;-59
2022/06/15 10:20:54;;;;;;;3.10;1.82;;;;;;;29.52;29.01;99079.75;1801232;79;27440;-62
2022/06/15 10:23:45;;;;;;;3.35;1.70;;;;;;;29.76;29.68;99072.02;1801825;79;25620;-62
2022/06/15 10:26:29;;;;;;;2.70;1.40;;;;;;;29.55;29.70;99073.23;1801480;79;25624;-63
2022/06/15 10:28:58;;;;;;;3.87;1.42;;;;;;;29.35;27.31;99066.16;1810020;79;27786;-61
2022/06/15 10:31:32;;;;;;;2.27;1.52;;;;;;;28.99;27.26;99064.83;1815946;79;25428;-63
2022/06/15 10:34:20;;;;;;;4.08;1.72;;;;;;;29.27;28.74;99057.84;1815680;78;28366;-62
2022/06/15 10:36:54;;;;;;;3.72;1.70;;;;;;;29.80;28.18;99060.05;1813086;79;26309;-62
2022/06/15 10:39:31;;;;;;;2.52;1.40;;;;;;;30.11;30.07;99060.39;1811020;79;25407;-60
2022/06/15 10:42:11;;;;;;;2.65;1.60;;;;;;;30.27;26.60;99056.00;1801634;79;25768;-59
2022/06/15 10:45:00;;;;;;;2.85;1.50;;;;;;;30.04;27.90;99055.68;1800273;79;25412;-58
2022/06/15 10:47:47;;;;;;;2.22;1.20;;;;;;;30.09;28.76;99050.13;1800594;79;28353;-61
2022/06/15 10:50:22;;;;;;;3.55;1.60;;;;;;;30.00;27.72;99045.09;1800404;79;25577;-61
2022/06/15 10:52:53;;;;;;;4.12;1.50;;;;;;;30.52;29.48;99053.99;1801599;79;25786;-61
2022/06/15 11:04:21;;;;;;;2.52;1.40;;;;;;;30.50;25.15;99042.93;1801410;79;25667;-61
2022/06/15 11:07:05;;;;;;;2.62;1.40;;;;;;;29.90;26.50;99048.32;1801598;79;25457;-62
2022/06/15 11:09:40;;;;;;;2.42;1.75;;;;;;;29.93;27.53;99047.45;1801467;79;26850;-61
2022/06/15 11:24:11;;;;;;;4.67;1.60;;;;;;;29.96;26.16;99046.40;1801792;79;25540;-59
2022/06/15 11:26:57;;;;;;;2.60;1.50;;;;;;;30.14;27.33;99043.94;1801594;79;25665;-61
2022/06/15 11:29:53;;;;;;;5.42;1.60;;;;;;;30.56;26.00;99038.33;1807902;79;25766;-59
2022/06/15 11:32:51;;;;;;;3.83;1.25;;;;;;;30.43;26.30;99036.21;1806070;79;27654;-62
2022/06/15 11:35:34;;;;;;;2.25;1.45;;;;;;;30.73;27.44;99027.00;1779684;79;25850;-61
2022/06/15 11:38:26;;;;;;;1.55;1.37;;;;;;;30.96;26.83;99030.88;1780718;78;25747;-62
2022/06/15 11:40:57;;;;;;;4.33;1.70;;;;;;;31.33;27.95;99038.56;1780039;79;25971;-61
2022/06/15 11:43:30;;;;;;;3.72;1.42;;;;;;;31.60;25.48;99048.73;1774916;80;25286;-63
2022/06/15 11:46:03;;;;;;;3.22;1.40;;;;;;;31.97;25.93;99042.81;1779036;79;26959;-60
2022/06/15 11:49:06;;;;;;;2.77;1.20;;;;;;;32.49;25.06;99042.81;1779247;80;25757;-59
2022/06/15 11:51:44;;;;;;;2.65;1.67;;;;;;;32.76;24.86;99034.43;1805357;79;25706;-63
2022/06/15 11:54:54;;;;;;;5.03;1.65;;;;;;;32.75;24.28;99034.89;1805614;79;25722;-63
2022/06/15 11:57:49;;;;;;;3.85;1.37;;;;;;;32.92;24.74;99036.91;1807253;79;25625;-62
2022/06/15 12:00:37;;;;;;;3.05;1.25;;;;;;;33.38;23.47;99030.84;1807180;79;27386;-60
2022/06/15 12:03:21;;;;;;;4.03;1.42;;;;;;;33.70;24.83;99025.85;1806946;79;26363;-61
2022/06/15 12:06:11;;;;;;;3.10;1.60;;;;;;;33.87;22.97;99024.97;1807109;79;25438;-57
2022/06/15 12:09:07;;;;;;;;;;;;;;;33.89;22.54;99030.98;1807844;79;25684;-58
2022/06/15 12:15:09;;;;;;;2.87;1.15;;;;;;;32.78;24.95;99036.81;1807108;79;27457;-63
2022/06/15 12:18:27;;;;;;;4.40;1.30;;;;;;;32.42;23.62;99027.42;1805787;79;25580;-61
2022/06/15 12:21:21;;;;;;;2.58;1.15;;;;;;;32.13;23.93;99026.95;1806935;79;25413;-62
2022/06/15 12:24:08;;;;;;;3.35;1.27;;;;;;;32.40;22.90;99022.22;1806125;79;25852;-63
2022/06/15 12:27:24;;;;;;;2.20;1.25;;;;;;;32.31;24.25;99017.86;1807472;79;25672;-62
2022/06/15 12:29:55;;;;;;;2.37;1.30;;;;;;;32.17;25.49;99015.66;1798934;79;29658;-59
2022/06/15 12:32:42;;;;;;;2.52;1.50;;;;;;;32.05;25.96;99019.30;1795740;79;25545;-63